Time;durP1;ratioP1;P1;durP2;ratioP2;P2;SDS_P1;SDS_P2;PMS_P1;PMS_P2;Temp;Humidity;BMP_temperature;BMP_pressure;BME280_temperature;BME280_humidity;BME280_pressure;Samples;Min_cycle;Max_cycle;Signal;HPM_P1;HPM_P2
2023/10/08 00:01:19;;;;;;;;;;;;;;;10.17;32.44;101378.69;5074837;28;19958;-66
2023/10/08 00:03:49;;;;;;;;;;;;;;;10.18;32.85;101381.19;5095653;28;19970;-67
2023/10/08 00:06:19;;;;;;;;;;;;;;;10.14;33.03;101379.00;5095187;28;19916;-66
2023/10/08 00:08:45;;;;;;;;;;;;;;;10.13;32.67;101380.88;5095252;28;20012;-67
2023/10/08 00:11:10;;;;;;;;;;;;;;;10.08;33.02;101381.38;5094941;28;19961;-67
2023/10/08 00:13:42;;;;;;;;;;;;;;;10.10;32.69;101391.09;5090677;28;19920;-67
2023/10/08 00:16:11;;;;;;;;;;;;;;;10.02;32.86;101381.19;5074649;28;19924;-67
2023/10/08 00:18:38;;;;;;;;;;;;;;;9.98;33.11;101385.22;5074465;28;20296;-68
2023/10/08 00:21:16;;;;;;;;;;;;;;;9.97;33.19;101399.63;5074495;28;19912;-67
2023/10/08 00:23:42;;;;;;;;;;;;;;;9.91;33.32;101389.56;5074337;28;19912;-67
2023/10/08 00:26:10;;;;;;;;;;;;;;;9.91;32.79;101394.94;5074621;28;19917;-67
2023/10/08 00:28:35;;;;;;;;;;;;;;;9.96;33.25;101397.97;5074614;28;20011;-67
2023/10/08 00:31:06;;;;;;;;;;;;;;;9.95;33.48;101396.28;5074094;28;20011;-67
2023/10/08 00:33:31;;;;;;;;;;;;;;;9.88;33.25;101402.31;5074077;28;19913;-68
2023/10/08 00:35:57;;;;;;;;;;;;;;;9.89;33.36;101404.00;5074165;28;19913;-68
2023/10/08 00:38:23;;;;;;;;;;;;;;;9.71;34.35;101408.66;5074247;28;20004;-68
2023/10/08 00:40:49;;;;;;;;;;;;;;;9.80;33.85;101421.06;5074002;28;19912;-68
2023/10/08 00:43:34;;;;;;;;;;;;;;;9.89;33.60;101422.78;5074116;28;20026;-68
2023/10/08 00:46:00;;;;;;;;;;;;;;;9.96;33.59;101425.63;5073887;28;19916;-67
2023/10/08 00:48:34;;;;;;;;;;;;;;;9.96;33.74;101432.88;5074016;28;19920;-67
2023/10/08 00:51:14;;;;;;;;;;;;;;;9.94;33.48;101437.56;5073787;28;19946;-68
2023/10/08 00:53:40;;;;;;;;;;;;;;;9.91;33.24;101437.88;5073653;28;19943;-68
2023/10/08 00:56:12;;;;;;;;;;;;;;;9.90;33.81;101429.00;5073817;28;20365;-68
2023/10/08 00:58:37;;;;;;;;;;;;;;;9.83;33.79;101444.06;5064588;28;19920;-68
2023/10/08 01:01:03;;;;;;;;;;;;;;;9.80;33.78;101436.34;5080118;28;19920;-68
2023/10/08 01:03:28;;;;;;;;;;;;;;;9.78;34.48;101449.91;5073665;28;19965;-68
2023/10/08 01:05:54;;;;;;;;;;;;;;;9.80;34.00;101447.91;5073719;28;19916;-67
2023/10/08 01:08:32;;;;;;;;;;;;;;;9.80;34.31;101460.47;5073735;28;19928;-67
2023/10/08 01:11:00;;;;;;;;;;;;;;;9.88;34.20;101464.03;5073591;28;20017;-67
2023/10/08 01:13:26;;;;;;;;;;;;;;;9.90;33.63;101466.56;5073500;28;19919;-67
2023/10/08 01:15:52;;;;;;;;;;;;;;;9.90;33.96;101463.88;5073396;28;19913;-67
2023/10/08 01:18:24;;;;;;;;;;;;;;;9.89;33.50;101465.69;5073805;28;19919;-67
2023/10/08 01:20:52;;;;;;;;;;;;;;;9.94;34.04;101470.59;5073448;28;19919;-67
2023/10/08 01:23:20;;;;;;;;;;;;;;;9.88;33.74;101477.44;5073592;28;19935;-67
2023/10/08 01:26:02;;;;;;;;;;;;;;;9.88;33.82;101468.56;5073535;28;19958;-67
2023/10/08 01:28:29;;;;;;;;;;;;;;;9.82;34.17;101469.22;5073252;28;20365;-67
2023/10/08 01:31:00;;;;;;;;;;;;;;;9.76;34.27;101468.03;5073192;28;20404;-67
2023/10/08 01:33:28;;;;;;;;;;;;;;;9.72;34.10;101465.84;5073192;28;20495;-67
2023/10/08 01:35:54;;;;;;;;;;;;;;;9.68;34.31;101466.16;5073460;28;19958;-67
2023/10/08 01:38:27;;;;;;;;;;;;;;;9.65;34.39;101465.63;5073098;28;19912;-67
2023/10/08 01:40:52;;;;;;;;;;;;;;;9.63;34.60;101467.66;5073328;28;20420;-67
2023/10/08 01:43:18;;;;;;;;;;;;;;;9.66;34.75;101470.00;5055722;28;19999;-67
2023/10/08 01:45:48;;;;;;;;;;;;;;;9.70;33.91;101476.72;5073135;28;19935;-67
2023/10/08 01:48:13;;;;;;;;;;;;;;;9.73;33.78;101484.44;5073414;28;20002;-67
2023/10/08 01:50:39;;;;;;;;;;;;;;;9.72;34.08;101487.31;5073192;28;19955;-68
2023/10/08 01:53:09;;;;;;;;;;;;;;;9.68;33.97;101489.47;5073025;28;19920;-68
2023/10/08 01:55:48;;;;;;;;;;;;;;;9.68;34.05;101495.66;5079998;28;20413;-68
2023/10/08 01:58:16;;;;;;;;;;;;;;;9.66;33.90;101492.31;5072833;28;19918;-68
2023/10/08 02:00:45;;;;;;;;;;;;;;;9.65;33.92;101498.66;5074067;28;19919;-68
2023/10/08 02:03:12;;;;;;;;;;;;;;;9.64;33.93;101507.72;5077071;28;19912;-68
2023/10/08 02:05:39;;;;;;;;;;;;;;;9.63;33.85;101505.19;5077391;28;19922;-68
2023/10/08 02:08:04;;;;;;;;;;;;;;;9.64;33.99;101518.44;5089380;28;20040;-68
2023/10/08 02:10:29;;;;;;;;;;;;;;;9.61;34.09;101515.25;5097408;28;19926;-68
2023/10/08 02:12:55;;;;;;;;;;;;;;;9.61;33.99;101517.94;5097182;28;20364;-68
2023/10/08 02:15:22;;;;;;;;;;;;;;;9.52;34.13;101514.38;5097363;28;19961;-68
2023/10/08 02:17:49;;;;;;;;;;;;;;;9.55;34.02;101511.38;5097116;28;20410;-67
2023/10/08 02:20:16;;;;;;;;;;;;;;;9.57;34.02;101519.25;5096881;28;20118;-68
2023/10/08 02:22:41;;;;;;;;;;;;;;;9.61;34.13;101520.63;5097060;28;20302;-68
2023/10/08 02:25:08;;;;;;;;;;;;;;;9.53;34.05;101520.56;5080032;28;20013;-68
2023/10/08 02:27:34;;;;;;;;;;;;;;;9.54;33.83;101525.78;5076923;28;19942;-68
2023/10/08 02:29:59;;;;;;;;;;;;;;;9.51;34.07;101520.75;5076565;28;19948;-68
2023/10/08 02:32:24;;;;;;;;;;;;;;;9.48;33.89;101521.88;5076329;28;19920;-68
2023/10/08 02:34:53;;;;;;;;;;;;;;;9.44;33.74;101533.09;5076564;28;20007;-68
2023/10/08 02:37:19;;;;;;;;;;;;;;;9.47;33.58;101539.00;5076319;28;19914;-68
2023/10/08 02:39:44;;;;;;;;;;;;;;;9.43;34.13;101550.19;5076222;28;19916;-68
2023/10/08 02:42:14;;;;;;;;;;;;;;;9.42;33.64;101540.47;5076213;28;19913;-68
2023/10/08 02:44:41;;;;;;;;;;;;;;;9.41;33.94;101544.13;5076424;28;19912;-68
2023/10/08 02:47:22;;;;;;;;;;;;;;;9.37;33.85;101542.78;5076176;28;19920;-68
2023/10/08 02:49:48;;;;;;;;;;;;;;;9.37;33.91;101535.56;5076414;28;20353;-68
2023/10/08 02:52:15;;;;;;;;;;;;;;;9.42;33.96;101527.91;5088482;28;19924;-68
2023/10/08 02:54:41;;;;;;;;;;;;;;;9.44;33.61;101528.56;5076262;28;20010;-67
2023/10/08 02:57:13;;;;;;;;;;;;;;;9.43;33.88;101532.25;5076054;28;19963;-67
2023/10/08 02:59:42;;;;;;;;;;;;;;;9.46;33.78;101537.28;5058075;28;19912;-68
2023/10/08 03:02:13;;;;;;;;;;;;;;;9.39;34.03;101533.56;5075758;28;20019;-69
2023/10/08 03:04:40;;;;;;;;;;;;;;;9.39;34.05;101530.88;5075887;28;20365;-70
2023/10/08 03:07:11;;;;;;;;;;;;;;;9.38;34.27;101531.91;5076062;28;19920;-68
2023/10/08 03:09:41;;;;;;;;;;;;;;;9.32;34.23;101532.53;5075660;28;20331;-68
2023/10/08 03:12:10;;;;;;;;;;;;;;;9.26;34.14;101530.50;5074868;28;19917;-68
2023/10/08 03:14:48;;;;;;;;;;;;;;;9.19;34.44;101541.00;5058653;28;19919;-68
2023/10/08 03:17:19;;;;;;;;;;;;;;;9.13;35.11;101536.28;5076397;28;20388;-68
2023/10/08 03:19:45;;;;;;;;;;;;;;;9.14;34.88;101546.00;5076107;28;20062;-68
2023/10/08 03:22:10;;;;;;;;;;;;;;;9.18;34.97;101551.88;5075564;28;20369;-68
2023/10/08 03:27:15;;;;;;;;;;;;;;;9.11;35.35;101555.19;5076445;28;19913;-67
2023/10/08 03:29:41;;;;;;;;;;;;;;;9.06;35.59;101557.50;5076026;28;19912;-68
2023/10/08 03:32:15;;;;;;;;;;;;;;;9.01;35.45;101567.03;5075800;28;20286;-68
2023/10/08 03:34:45;;;;;;;;;;;;;;;8.96;35.40;101566.63;5076345;28;19916;-68
2023/10/08 03:37:21;;;;;;;;;;;;;;;8.88;35.71;101573.59;5078527;28;19912;-68
2023/10/08 03:39:50;;;;;;;;;;;;;;;8.84;35.88;101574.94;5076332;28;19912;-68
2023/10/08 03:42:23;;;;;;;;;;;;;;;8.82;36.10;101576.06;5076313;28;19912;-67
2023/10/08 03:44:51;;;;;;;;;;;;;;;8.79;36.49;101573.72;5076021;28;19912;-67
2023/10/08 03:47:18;;;;;;;;;;;;;;;8.73;36.73;101575.16;5084113;28;19950;-67
2023/10/08 03:49:45;;;;;;;;;;;;;;;8.68;37.14;101577.47;5078313;28;19923;-68
2023/10/08 03:52:12;;;;;;;;;;;;;;;8.66;36.91;101576.78;5096182;28;20003;-68
2023/10/08 03:54:42;;;;;;;;;;;;;;;8.65;36.80;101580.44;5077365;28;19948;-68
2023/10/08 03:57:15;;;;;;;;;;;;;;;8.63;37.18;101585.94;5037112;28;20374;-68
2023/10/08 03:59:41;;;;;;;;;;;;;;;8.69;37.49;101587.16;5070147;28;19962;-68
2023/10/08 04:04:51;;;;;;;;;;;;;;;8.75;37.78;101591.91;5069934;28;20447;-68
2023/10/08 04:12:39;;;;;;;;;;;;;;;8.78;37.71;101590.75;5075517;28;19917;-68
2023/10/08 04:15:07;;;;;;;;;;;;;;;8.74;37.52;101592.91;5075638;28;19917;-68
2023/10/08 04:17:43;;;;;;;;;;;;;;;8.72;38.10;101593.03;5076514;28;19964;-68
2023/10/08 04:20:30;;;;;;;;;;;;;;;8.69;38.11;101609.44;5075971;28;19936;-68
2023/10/08 04:22:55;;;;;;;;;;;;;;;8.65;37.68;101601.84;5075902;28;19920;-68
2023/10/08 04:25:20;;;;;;;;;;;;;;;8.62;38.13;101613.72;5076061;28;19912;-68
2023/10/08 04:27:49;;;;;;;;;;;;;;;8.57;37.74;101625.88;5075606;28;19912;-68
2023/10/08 04:30:15;;;;;;;;;;;;;;;8.52;38.16;101634.34;5057371;28;20288;-68
2023/10/08 04:32:41;;;;;;;;;;;;;;;8.53;38.10;101636.06;5057565;28;19924;-69
2023/10/08 04:35:14;;;;;;;;;;;;;;;8.53;38.22;101644.91;5075262;28;19916;-68
2023/10/08 04:37:40;;;;;;;;;;;;;;;8.52;38.47;101658.44;5075224;28;20008;-68
2023/10/08 04:40:14;;;;;;;;;;;;;;;8.48;38.27;101654.41;5056373;28;19912;-67
2023/10/08 04:42:40;;;;;;;;;;;;;;;8.50;38.46;101665.78;5075131;28;19912;-67
2023/10/08 04:45:05;;;;;;;;;;;;;;;8.52;39.03;101661.13;5094571;28;20412;-68
2023/10/08 04:47:35;;;;;;;;;;;;;;;8.51;38.76;101662.13;5094821;28;20384;-69
2023/10/08 04:50:04;;;;;;;;;;;;;;;8.52;38.74;101656.63;5094385;28;19912;-69
2023/10/08 04:52:29;;;;;;;;;;;;;;;8.52;38.94;101662.00;5086325;28;19921;-68
2023/10/08 04:54:56;;;;;;;;;;;;;;;8.52;39.01;101661.13;5037305;28;19919;-68
2023/10/08 04:57:30;;;;;;;;;;;;;;;8.48;39.16;101665.94;5073845;28;19912;-69
2023/10/08 04:59:57;;;;;;;;;;;;;;;8.43;39.01;101664.72;5073721;28;19912;-68
2023/10/08 05:03:13;;;;;;;;;;;;;;;8.40;39.15;101659.63;5073785;28;19912;-69
2023/10/08 05:13:01;;;;;;;;;;;;;;;8.31;38.12;101662.19;5073492;28;20331;-69
2023/10/08 05:15:41;;;;;;;;;;;;;;;8.28;38.60;101664.34;5069099;28;20192;-68
2023/10/08 05:18:19;;;;;;;;;;;;;;;8.24;38.41;101662.94;5073184;28;20422;-68
2023/10/08 05:26:21;;;;;;;;;;;;;;;8.17;38.61;101670.72;5073599;28;19917;-68
2023/10/08 05:31:46;;;;;;;;;;;;;;;8.19;38.85;101666.09;5052178;28;19927;-67
2023/10/08 05:34:17;;;;;;;;;;;;;;;8.19;38.79;101671.44;5073433;28;19958;-67
2023/10/08 05:42:31;;;;;;;;;;;;;;;8.15;38.69;101675.38;5094069;28;19912;-65
2023/10/08 05:52:53;;;;;;;;;;;;;;;8.24;37.75;101697.75;5076073;28;20361;-68
2023/10/08 05:55:33;;;;;;;;;;;;;;;8.28;37.44;101702.66;5072871;28;20372;-69
2023/10/08 05:58:24;;;;;;;;;;;;;;;8.31;37.93;101699.66;5073539;28;20058;-68
2023/10/08 06:03:48;;;;;;;;;;;;;;;8.28;38.62;101708.03;5073519;28;19912;-69
2023/10/08 06:11:44;;;;;;;;;;;;;;;8.26;39.34;101711.81;5055185;28;19927;-69
2023/10/08 06:14:13;;;;;;;;;;;;;;;8.33;39.25;101711.06;5038452;28;20357;-69
2023/10/08 06:16:43;;;;;;;;;;;;;;;8.29;38.89;101707.00;5072812;28;19974;-69
2023/10/08 06:19:12;;;;;;;;;;;;;;;8.42;38.85;101713.91;5072930;28;19974;-69
2023/10/08 06:21:39;;;;;;;;;;;;;;;8.44;38.59;101714.59;5073035;28;19948;-70
2023/10/08 06:24:08;;;;;;;;;;;;;;;8.43;38.77;101716.44;5072683;28;20405;-70
2023/10/08 06:26:38;;;;;;;;;;;;;;;8.42;38.72;101722.75;5073762;28;20430;-69
2023/10/08 06:29:18;;;;;;;;;;;;;;;8.38;38.54;101731.22;5038764;28;19954;-69
2023/10/08 06:31:50;;;;;;;;;;;;;;;8.39;38.68;101735.56;5065551;28;19916;-69
2023/10/08 06:34:16;;;;;;;;;;;;;;;8.42;39.31;101729.97;5072713;28;19912;-69
2023/10/08 06:36:41;;;;;;;;;;;;;;;8.45;39.16;101735.00;5085237;28;19957;-69
2023/10/08 06:39:11;;;;;;;;;;;;;;;8.48;39.39;101730.19;5092937;28;20670;-69
2023/10/08 06:41:37;;;;;;;;;;;;;;;8.53;39.51;101730.59;5092993;28;19995;-69
2023/10/08 06:44:02;;;;;;;;;;;;;;;8.54;39.34;101728.75;5074798;28;20362;-70
2023/10/08 06:46:32;;;;;;;;;;;;;;;8.54;39.52;101726.06;5085891;28;19912;-69
2023/10/08 06:48:58;;;;;;;;;;;;;;;8.55;39.06;101727.78;5076461;28;19912;-69
2023/10/08 06:51:25;;;;;;;;;;;;;;;8.56;39.39;101723.25;5076332;28;19924;-69
2023/10/08 06:53:51;;;;;;;;;;;;;;;8.58;39.04;101721.25;5075781;28;19913;-70
2023/10/08 06:56:19;;;;;;;;;;;;;;;8.65;38.48;101714.31;5075633;28;19916;-70
2023/10/08 06:58:53;;;;;;;;;;;;;;;8.71;38.55;101732.47;5058182;28;19924;-69
2023/10/08 07:01:21;;;;;;;;;;;;;;;8.75;38.89;101728.50;5075531;28;19912;-69
2023/10/08 07:03:50;;;;;;;;;;;;;;;8.78;38.82;101728.19;5076028;28;19920;-69
2023/10/08 07:09:23;;;;;;;;;;;;;;;8.89;38.79;101757.44;5050636;28;20003;-69
2023/10/08 07:11:49;;;;;;;;;;;;;;;8.94;38.54;101766.88;5037997;28;19921;-69
2023/10/08 07:14:15;;;;;;;;;;;;;;;8.98;38.42;101768.25;5055723;28;19917;-69
2023/10/08 07:16:41;;;;;;;;;;;;;;;9.07;37.94;101767.34;5064294;28;19919;-69
2023/10/08 07:19:15;;;;;;;;;;;;;;;9.11;37.79;101752.66;5040947;28;19912;-69
2023/10/08 07:21:47;;;;;;;;;;;;;;;9.14;37.75;101770.25;5075412;28;20369;-69
2023/10/08 07:24:17;;;;;;;;;;;;;;;9.16;37.57;101765.63;5075291;28;20289;-69
2023/10/08 07:26:46;;;;;;;;;;;;;;;9.19;37.68;101771.47;5075778;28;19913;-69
2023/10/08 07:29:13;;;;;;;;;;;;;;;9.23;37.30;101772.88;5075401;28;19990;-70
2023/10/08 07:31:41;;;;;;;;;;;;;;;9.27;37.44;101774.25;5075096;28;19916;-69
2023/10/08 07:34:15;;;;;;;;;;;;;;;9.31;37.38;101782.84;5075152;28;19966;-69
2023/10/08 07:36:46;;;;;;;;;;;;;;;9.36;37.06;101777.88;5075212;28;19918;-69
2023/10/08 07:41:56;;;;;;;;;;;;;;;9.46;36.97;101783.16;5075232;28;19912;-70
2023/10/08 07:44:22;;;;;;;;;;;;;;;9.51;37.13;101788.91;5075283;28;19912;-70
2023/10/08 07:46:48;;;;;;;;;;;;;;;9.57;36.91;101790.13;5074937;28;19913;-70
2023/10/08 07:49:14;;;;;;;;;;;;;;;9.63;36.95;101790.34;5075834;28;19912;-70
2023/10/08 07:51:40;;;;;;;;;;;;;;;9.68;36.91;101788.03;5075098;28;20015;-70
2023/10/08 07:54:09;;;;;;;;;;;;;;;9.75;36.82;101788.25;5075023;28;19912;-69
2023/10/08 07:56:37;;;;;;;;;;;;;;;9.76;36.74;101784.56;5075630;28;19917;-70
2023/10/08 07:59:08;;;;;;;;;;;;;;;9.80;36.68;101780.56;5074558;28;19912;-68
2023/10/08 08:01:34;;;;;;;;;;;;;;;9.89;36.62;101779.63;5075702;28;19920;-68
2023/10/08 08:03:59;;;;;;;;;;;;;;;9.97;36.69;101776.16;5075610;28;19912;-68
2023/10/08 08:06:25;;;;;;;;;;;;;;;10.04;36.46;101787.13;5075211;28;19916;-70
2023/10/08 08:08:51;;;;;;;;;;;;;;;10.12;36.23;101789.84;5074662;28;19920;-68
2023/10/08 08:11:24;;;;;;;;;;;;;;;10.13;36.49;101786.19;5074548;28;20057;-70
2023/10/08 08:13:49;;;;;;;;;;;;;;;10.17;36.46;101786.69;5074801;28;19912;-69
2023/10/08 08:16:18;;;;;;;;;;;;;;;10.17;36.48;101792.91;5056871;28;20361;-68
2023/10/08 08:18:44;;;;;;;;;;;;;;;10.32;36.73;101797.72;5074704;28;19958;-66
2023/10/08 08:21:14;;;;;;;;;;;;;;;10.40;36.31;101798.63;5074902;28;19920;-68
2023/10/08 08:23:39;;;;;;;;;;;;;;;10.48;36.13;101788.94;5074237;28;19913;-69
2023/10/08 08:27:01;;;;;;;;;;;;;;;10.57;35.59;101796.88;5074323;28;19923;-68
2023/10/08 08:28:54;;;;;;;;;;;;;;;10.68;35.92;101797.56;5063090;28;20388;-68
2023/10/08 08:31:19;;;;;;;;;;;;;;;10.73;34.71;101797.94;5074192;28;19913;-69
2023/10/08 08:33:56;;;;;;;;;;;;;;;10.79;33.73;101794.59;5074026;28;20356;-68
2023/10/08 08:36:22;;;;;;;;;;;;;;;10.80;33.89;101794.44;5073533;28;20027;-69
2023/10/08 08:38:47;;;;;;;;;;;;;;;10.92;33.70;101802.19;5074120;28;20011;-70
2023/10/08 08:41:17;;;;;;;;;;;;;;;10.98;33.28;101807.78;5074459;28;19919;-68
2023/10/08 08:43:46;;;;;;;;;;;;;;;11.12;33.98;101803.59;5074118;28;20335;-69
2023/10/08 08:46:14;;;;;;;;;;;;;;;11.35;33.92;101789.53;5073988;28;19913;-67
2023/10/08 08:48:40;;;;;;;;;;;;;;;11.45;33.20;101798.28;5073820;28;20314;-66
2023/10/08 08:51:09;;;;;;;;;;;;;;;11.58;33.46;101787.03;5073950;28;19916;-66
2023/10/08 08:53:35;;;;;;;;;;;;;;;11.69;32.64;101780.47;5074058;28;20061;-67
2023/10/08 08:56:03;;;;;;;;;;;;;;;11.72;33.10;101777.44;5073084;28;20408;-66
2023/10/08 08:58:29;;;;;;;;;;;;;;;11.81;33.17;101781.81;5073583;28;19916;-66
2023/10/08 09:00:56;;;;;;;;;;;;;;;12.01;32.86;101798.47;5073766;28;19939;-66
2023/10/08 09:03:30;;;;;;;;;;;;;;;12.09;32.48;101790.41;5055498;28;19912;-66
2023/10/08 09:05:55;;;;;;;;;;;;;;;12.18;32.25;101796.59;5053586;28;20337;-67
2023/10/08 09:08:24;;;;;;;;;;;;;;;12.15;31.36;101796.97;5052952;28;19927;-66
2023/10/08 09:10:52;;;;;;;;;;;;;;;12.20;30.85;101799.94;5053747;28;19916;-66
2023/10/08 09:13:20;;;;;;;;;;;;;;;12.31;31.13;101798.75;5053881;28;19963;-66
2023/10/08 09:15:46;;;;;;;;;;;;;;;12.57;31.17;101809.28;5073871;28;19919;-66
2023/10/08 09:18:13;;;;;;;;;;;;;;;12.75;31.58;101801.81;5055460;28;19912;-65
2023/10/08 09:20:43;;;;;;;;;;;;;;;12.85;31.31;101804.31;5073604;28;19928;-66
2023/10/08 09:23:13;;;;;;;;;;;;;;;12.95;31.96;101807.63;5073440;28;20016;-65
2023/10/08 09:25:42;;;;;;;;;;;;;;;13.08;31.80;101812.44;5085872;28;19927;-66
2023/10/08 09:28:08;;;;;;;;;;;;;;;13.15;31.20;101809.88;5076179;28;20597;-67
2023/10/08 09:30:37;;;;;;;;;;;;;;;13.25;31.08;101810.50;5073866;28;19913;-67
2023/10/08 09:33:06;;;;;;;;;;;;;;;13.32;31.07;101803.41;5073004;28;20357;-66
2023/10/08 09:35:33;;;;;;;;;;;;;;;13.51;31.04;101806.63;5073540;28;20069;-66
2023/10/08 09:37:58;;;;;;;;;;;;;;;13.66;31.58;101804.84;5073380;28;20273;-67
2023/10/08 09:40:25;;;;;;;;;;;;;;;13.51;28.93;101812.03;5073678;28;19913;-65
2023/10/08 09:42:51;;;;;;;;;;;;;;;13.60;28.97;101824.47;5073085;28;19919;-66
2023/10/08 09:45:17;;;;;;;;;;;;;;;13.68;27.69;101826.25;5055463;28;19912;-66
2023/10/08 09:47:47;;;;;;;;;;;;;;;13.82;27.52;101830.88;5073193;28;19912;-65
2023/10/08 09:50:12;;;;;;;;;;;;;;;14.07;28.20;101831.47;5073593;28;20003;-66
2023/10/08 09:52:59;;;;;;;;;;;;;;;14.30;27.14;101833.28;5072959;28;20424;-67
2023/10/08 09:55:24;;;;;;;;;;;;;;;14.53;26.98;101819.69;5072631;28;19919;-67
2023/10/08 09:57:55;;;;;;;;;;;;;;;14.69;25.84;101824.09;5072606;28;19913;-65
2023/10/08 10:00:30;;;;;;;;;;;;;;;14.87;27.24;101824.53;5072818;28;19919;-65
2023/10/08 10:02:56;;;;;;;;;;;;;;;14.85;24.58;101829.31;5069870;28;19920;-67
2023/10/08 10:05:21;;;;;;;;;;;;;;;15.15;26.99;101828.44;5072699;28;19912;-62
2023/10/08 10:07:55;;;;;;;;;;;;;;;15.31;26.92;101838.19;5072615;28;19920;-67
2023/10/08 10:10:26;;;;;;;;;;;;;;;15.54;26.91;101849.66;5072689;28;20524;-67
2023/10/08 10:12:51;;;;;;;;;;;;;;;15.64;26.39;101847.50;5072772;28;20254;-67
2023/10/08 10:15:19;;;;;;;;;;;;;;;15.76;26.19;101839.72;5073186;28;19923;-66
2023/10/08 10:17:47;;;;;;;;;;;;;;;15.82;24.38;101847.09;5072880;28;19919;-67
2023/10/08 10:20:13;;;;;;;;;;;;;;;15.82;25.19;101847.09;5072971;28;19919;-66
2023/10/08 10:22:39;;;;;;;;;;;;;;;15.99;24.07;101839.53;5095333;28;19923;-67
2023/10/08 10:25:14;;;;;;;;;;;;;;;16.00;25.54;101829.50;5080718;28;19916;-67
2023/10/08 10:27:49;;;;;;;;;;;;;;;16.11;24.31;101828.97;5076918;28;19913;-67
2023/10/08 10:30:18;;;;;;;;;;;;;;;16.30;25.77;101829.31;5076764;28;19923;-68
2023/10/08 10:32:46;;;;;;;;;;;;;;;16.34;25.83;101833.28;5076065;28;20369;-70
2023/10/08 10:35:15;;;;;;;;;;;;;;;16.49;25.35;101828.59;5076424;28;20019;-70
2023/10/08 10:37:52;;;;;;;;;;;;;;;16.70;26.47;101833.09;5058398;28;19913;-68
2023/10/08 10:41:22;;;;;;;;;;;;;;;16.78;25.57;101826.69;5076766;28;19912;-68
2023/10/08 10:43:20;;;;;;;;;;;;;;;17.01;26.46;101834.50;5062511;28;19947;-68
2023/10/08 10:45:47;;;;;;;;;;;;;;;17.12;26.02;101833.94;5076530;28;19916;-68
2023/10/08 10:51:29;;;;;;;;;;;;;;;17.27;23.56;101825.63;5076593;28;20293;-70
2023/10/08 10:53:57;;;;;;;;;;;;;;;17.38;25.70;101829.63;5064896;28;19917;-72
2023/10/08 10:56:32;;;;;;;;;;;;;;;17.65;25.67;101825.09;5076143;28;19913;-67
2023/10/08 10:59:06;;;;;;;;;;;;;;;17.84;25.03;101815.25;5075648;28;20357;-68
2023/10/08 11:01:44;;;;;;;;;;;;;;;17.86;24.75;101820.53;5074586;28;19924;-68
2023/10/08 11:04:15;;;;;;;;;;;;;;;17.99;26.57;101813.19;5057093;28;20003;-68
2023/10/08 11:06:41;;;;;;;;;;;;;;;17.95;25.14;101814.66;5074581;28;19912;-68
2023/10/08 11:09:14;;;;;;;;;;;;;;;17.83;23.73;101821.75;5056796;28;20270;-67
2023/10/08 11:11:43;;;;;;;;;;;;;;;17.76;22.14;101816.31;5075375;28;19974;-68
2023/10/08 11:14:15;;;;;;;;;;;;;;;17.67;23.17;101809.41;5075240;28;20384;-68
2023/10/08 11:16:43;;;;;;;;;;;;;;;17.83;22.51;101819.03;5084046;28;19915;-68
2023/10/08 11:19:09;;;;;;;;;;;;;;;18.05;25.31;101811.53;5095912;28;19916;-68
2023/10/08 11:21:47;;;;;;;;;;;;;;;18.18;25.40;101800.66;5096191;28;20237;-68
2023/10/08 11:24:24;;;;;;;;;;;;;;;18.45;24.81;101799.75;5068726;28;19912;-68
2023/10/08 11:27:06;;;;;;;;;;;;;;;18.70;25.74;101802.59;5075800;28;19942;-68
2023/10/08 11:29:32;;;;;;;;;;;;;;;18.92;23.81;101795.00;5075729;28;19967;-68
2023/10/08 11:32:00;;;;;;;;;;;;;;;19.15;24.34;101808.94;5057490;28;19961;-69
2023/10/08 11:34:36;;;;;;;;;;;;;;;19.20;23.90;101807.44;5074365;28;19920;-69
2023/10/08 11:37:04;;;;;;;;;;;;;;;19.26;22.98;101790.22;5075500;28;19993;-69
2023/10/08 11:39:45;;;;;;;;;;;;;;;19.17;21.90;101797.81;5075574;28;20300;-68
2023/10/08 11:42:39;;;;;;;;;;;;;;;19.38;25.19;101788.47;5075214;28;19912;-68
2023/10/08 11:44:59;;;;;;;;;;;;;;;19.50;22.87;101775.81;5075086;28;19913;-69
2023/10/08 11:47:25;;;;;;;;;;;;;;;19.55;22.38;101775.13;5075073;28;19912;-68
2023/10/08 11:49:54;;;;;;;;;;;;;;;19.64;23.22;101773.81;5075266;28;19912;-69
2023/10/08 11:52:23;;;;;;;;;;;;;;;19.71;20.84;101760.97;5074836;28;19917;-69
2023/10/08 11:54:49;;;;;;;;;;;;;;;19.88;23.43;101755.81;5074550;28;19912;-68
2023/10/08 11:57:18;;;;;;;;;;;;;;;19.92;20.31;101758.91;5057447;28;19991;-69
2023/10/08 11:59:43;;;;;;;;;;;;;;;19.95;22.34;101754.91;5051367;28;19916;-66
2023/10/08 12:02:09;;;;;;;;;;;;;;;20.13;22.76;101763.09;5080357;28;20015;-67
2023/10/08 12:04:36;;;;;;;;;;;;;;;20.36;23.12;101750.72;5073842;28;19916;-68
2023/10/08 12:07:07;;;;;;;;;;;;;;;20.50;23.81;101752.22;5086848;28;19912;-67
2023/10/08 12:09:37;;;;;;;;;;;;;;;20.67;23.73;101749.72;5094677;28;20011;-66
2023/10/08 12:12:09;;;;;;;;;;;;;;;20.82;22.13;101754.78;5094810;28;19916;-66
2023/10/08 12:14:34;;;;;;;;;;;;;;;20.93;22.02;101762.22;5072909;28;19943;-67
2023/10/08 12:17:00;;;;;;;;;;;;;;;21.15;23.43;101759.78;5095484;28;19912;-67
2023/10/08 12:19:26;;;;;;;;;;;;;;;21.39;21.44;101752.47;5081820;28;19938;-68
2023/10/08 12:21:53;;;;;;;;;;;;;;;21.57;23.58;101748.03;5090335;28;19963;-68
2023/10/08 12:24:19;;;;;;;;;;;;;;;21.81;21.49;101743.44;5090829;28;20026;-67
2023/10/08 12:26:49;;;;;;;;;;;;;;;21.94;20.88;101750.56;5073787;28;20339;-66
2023/10/08 12:29:16;;;;;;;;;;;;;;;22.19;22.08;101736.59;5092545;28;20065;-67
2023/10/08 12:31:46;;;;;;;;;;;;;;;22.46;22.89;101734.22;5092479;28;19964;-69
2023/10/08 12:34:12;;;;;;;;;;;;;;;22.70;22.34;101742.38;5093463;28;19916;-66
2023/10/08 12:36:38;;;;;;;;;;;;;;;22.87;20.34;101728.72;5092344;28;20677;-68
2023/10/08 12:39:09;;;;;;;;;;;;;;;23.16;22.88;101729.53;5084751;28;20273;-68
2023/10/08 12:41:38;;;;;;;;;;;;;;;23.45;23.46;101734.97;5055071;28;20273;-68
2023/10/08 12:44:07;;;;;;;;;;;;;;;23.69;22.15;101725.47;5087901;28;19912;-70
2023/10/08 12:46:33;;;;;;;;;;;;;;;23.95;22.36;101726.72;5077230;28;19913;-71
2023/10/08 12:49:01;;;;;;;;;;;;;;;24.08;21.40;101725.53;5078704;28;19916;-71
2023/10/08 12:51:31;;;;;;;;;;;;;;;24.20;20.89;101716.34;5092749;28;20029;-70
2023/10/08 12:54:03;;;;;;;;;;;;;;;24.23;19.96;101710.34;5072639;28;19995;-68
2023/10/08 12:56:35;;;;;;;;;;;;;;;24.31;18.86;101713.50;5082866;28;19919;-68
2023/10/08 12:59:05;;;;;;;;;;;;;;;24.35;19.17;101716.56;5073228;28;19919;-69
2023/10/08 13:01:30;;;;;;;;;;;;;;;24.37;20.77;101722.63;5077026;28;20011;-69
2023/10/08 13:04:06;;;;;;;;;;;;;;;24.26;19.30;101713.41;5073444;28;19944;-70
2023/10/08 13:06:32;;;;;;;;;;;;;;;24.15;17.68;101715.19;5054891;28;19916;-73
2023/10/08 13:08:58;;;;;;;;;;;;;;;24.05;18.32;101715.06;5085236;28;19942;-73
2023/10/08 13:11:24;;;;;;;;;;;;;;;23.95;20.47;101713.00;5093651;28;19916;-73
2023/10/08 13:13:50;;;;;;;;;;;;;;;23.86;19.08;101710.94;5073232;28;19927;-70
2023/10/08 13:16:16;;;;;;;;;;;;;;;23.79;18.70;101722.09;5092663;28;19959;-70
2023/10/08 13:18:43;;;;;;;;;;;;;;;23.77;18.98;101716.00;5093144;28;19912;-68
2023/10/08 13:21:09;;;;;;;;;;;;;;;23.77;18.08;101708.63;5081320;28;19919;-69
2023/10/08 13:23:35;;;;;;;;;;;;;;;23.95;18.12;101714.91;5076965;28;19957;-66
2023/10/08 13:26:04;;;;;;;;;;;;;;;23.70;18.35;101649.50;5085853;28;20002;-66
2023/10/08 13:28:29;;;;;;;;;;;;;;;24.39;19.82;101705.91;5074982;28;19912;-69
2023/10/08 13:30:54;;;;;;;;;;;;;;;24.71;18.19;101709.56;5093612;28;19916;-69
2023/10/08 13:33:20;;;;;;;;;;;;;;;24.91;17.22;101703.47;5079597;28;19917;-66
2023/10/08 13:35:49;;;;;;;;;;;;;;;25.19;16.08;101701.53;5073293;28;19958;-67
2023/10/08 13:38:16;;;;;;;;;;;;;;;25.35;16.05;101699.75;5078758;28;19939;-66
2023/10/08 13:40:48;;;;;;;;;;;;;;;25.78;18.30;101691.53;5092874;28;20308;-68
2023/10/08 13:43:13;;;;;;;;;;;;;;;26.06;17.17;101682.91;5074171;28;20381;-72
2023/10/08 13:45:39;;;;;;;;;;;;;;;26.38;17.79;101675.59;5057245;28;19948;-72
2023/10/08 13:48:05;;;;;;;;;;;;;;;26.48;15.89;101675.63;5072220;28;19939;-69
2023/10/08 13:50:30;;;;;;;;;;;;;;;26.64;17.62;101668.25;5071041;28;19954;-69